createdAt,value
2022-10-29T00:00:59.087Z,4.95
2022-10-29T00:03:26.382Z,5.78
2022-10-29T00:06:09.532Z,5.13
2022-10-29T00:08:38.589Z,5.10
2022-10-29T00:11:15.275Z,4.60
2022-10-29T00:13:43.235Z,4.90
2022-10-29T00:16:15.866Z,4.43
2022-10-29T00:18:43.602Z,4.50
2022-10-29T00:21:16.106Z,4.85
2022-10-29T00:23:43.355Z,4.78
2022-10-29T00:26:10.663Z,4.45
2022-10-29T00:28:38.119Z,5.40
2022-10-29T00:31:12.590Z,4.70
2022-10-29T00:33:39.636Z,4.53
2022-10-29T00:36:18.792Z,5.30
2022-10-29T00:38:45.890Z,4.63
2022-10-29T00:41:16.112Z,4.90
2022-10-29T00:43:48.394Z,4.63
2022-10-29T00:46:27.823Z,5.03
2022-10-29T00:48:56.679Z,4.63
2022-10-29T00:51:23.755Z,4.50
2022-10-29T00:53:57.778Z,4.70
2022-10-29T00:56:26.817Z,5.05
2022-10-29T00:58:53.756Z,5.18
2022-10-29T01:01:20.641Z,4.97
2022-10-29T01:03:48.211Z,4.78
2022-10-29T01:06:15.313Z,5.30
2022-10-29T01:08:41.978Z,4.82
2022-10-29T01:11:26.655Z,4.88
2022-10-29T01:14:11.971Z,4.78
2022-10-29T01:17:04.808Z,4.68
2022-10-29T01:19:49.675Z,4.78
2022-10-29T01:22:36.710Z,4.90
2022-10-29T01:25:12.640Z,5.20
2022-10-29T01:27:59.453Z,5.03
2022-10-29T01:30:28.551Z,4.87
2022-10-29T01:33:17.910Z,5.40
2022-10-29T01:36:08.009Z,5.20
2022-10-29T01:38:38.640Z,4.47
2022-10-29T01:41:46.007Z,4.35
2022-10-29T01:44:37.376Z,5.30
2022-10-29T01:47:05.749Z,4.03
2022-10-29T01:49:40.225Z,5.13
2022-10-29T01:52:10.316Z,4.57
2022-10-29T01:54:43.973Z,4.80
2022-10-29T01:57:25.796Z,5.35
2022-10-29T01:59:56.018Z,5.80
2022-10-29T02:02:31.066Z,5.35
2022-10-29T02:05:19.725Z,6.30
2022-10-29T02:07:50.760Z,5.15
2022-10-29T02:10:31.562Z,5.20
2022-10-29T02:12:58.945Z,5.63
2022-10-29T02:15:35.074Z,5.63
2022-10-29T02:18:04.582Z,6.22
2022-10-29T02:20:31.316Z,4.95
2022-10-29T02:22:58.466Z,5.78
2022-10-29T02:25:25.466Z,6.70
2022-10-29T02:27:52.263Z,6.50
2022-10-29T02:30:19.512Z,6.68
2022-10-29T02:32:46.222Z,6.43
2022-10-29T02:35:12.982Z,6.85
2022-10-29T02:37:39.652Z,7.30
2022-10-29T02:40:09.265Z,6.82
2022-10-29T02:42:36.073Z,6.53
2022-10-29T02:45:02.948Z,6.38
2022-10-29T02:47:29.678Z,5.97
2022-10-29T02:49:56.428Z,6.25
2022-10-29T02:52:23.197Z,6.50
2022-10-29T02:54:49.940Z,5.97
2022-10-29T02:57:16.766Z,6.65
2022-10-29T02:59:43.663Z,6.28
2022-10-29T03:02:10.420Z,5.20
2022-10-29T03:04:39.433Z,6.00
2022-10-29T03:07:06.150Z,5.80
2022-10-29T03:09:32.899Z,5.88
2022-10-29T03:11:59.554Z,5.25
2022-10-29T03:14:26.285Z,5.25
2022-10-29T03:16:52.940Z,5.35
2022-10-29T03:19:19.783Z,5.63
2022-10-29T03:21:46.471Z,4.63
2022-10-29T03:24:13.219Z,5.28
2022-10-29T03:26:39.914Z,5.50
2022-10-29T03:29:06.622Z,5.93
2022-10-29T03:31:33.385Z,5.28
2022-10-29T03:34:00.191Z,5.82
2022-10-29T03:36:27.119Z,5.72
2022-10-29T03:38:53.845Z,6.28
2022-10-29T03:41:20.653Z,5.90
2022-10-29T03:43:47.550Z,5.70
2022-10-29T03:46:14.310Z,6.07
2022-10-29T03:48:41.133Z,6.72
2022-10-29T03:51:07.973Z,6.47
2022-10-29T03:53:39.169Z,6.38
2022-10-29T03:56:06.932Z,6.28
2022-10-29T03:58:33.721Z,6.50
2022-10-29T04:01:08.497Z,6.90
2022-10-29T04:03:42.155Z,7.35
2022-10-29T04:06:14.543Z,7.57
2022-10-29T04:08:41.598Z,8.10
2022-10-29T04:11:11.392Z,7.55
2022-10-29T04:13:38.132Z,7.25
2022-10-29T04:16:05.024Z,6.57
2022-10-29T04:18:31.846Z,6.45
2022-10-29T04:29:23.806Z,6.30
2022-10-29T04:31:50.676Z,5.97
2022-10-29T04:34:17.444Z,6.78
2022-10-29T04:36:44.155Z,6.15
2022-10-29T04:39:10.977Z,6.32
2022-10-29T04:41:37.712Z,6.40
2022-10-29T04:44:04.483Z,6.13
2022-10-29T04:46:31.183Z,6.75
2022-10-29T04:48:57.949Z,7.18
2022-10-29T04:51:26.212Z,7.25
2022-10-29T04:56:19.957Z,6.38
2022-10-29T04:58:46.661Z,6.85
2022-10-29T05:01:13.662Z,7.20
2022-10-29T05:03:40.542Z,7.07
2022-10-29T05:06:10.133Z,7.13
2022-10-29T05:08:37.084Z,7.40
2022-10-29T05:11:05.352Z,7.28
2022-10-29T05:13:38.959Z,6.78
2022-10-29T05:16:06.138Z,6.63
2022-10-29T05:18:32.938Z,6.65
2022-10-29T05:20:59.646Z,6.38
2022-10-29T05:23:26.384Z,6.30
2022-10-29T05:25:55.478Z,6.00
2022-10-29T05:28:23.265Z,6.18
2022-10-29T05:30:52.415Z,6.53
2022-10-29T05:33:24.323Z,6.90
2022-10-29T05:35:51.671Z,6.95
2022-10-29T05:38:19.035Z,6.77
2022-10-29T05:40:45.875Z,7.40
2022-10-29T05:43:14.354Z,6.93
2022-10-29T05:45:41.707Z,6.70
2022-10-29T05:48:10.154Z,5.83
2022-10-29T05:50:36.975Z,4.95
2022-10-29T05:53:06.368Z,5.55
2022-10-29T05:55:34.813Z,4.95
2022-10-29T05:58:06.991Z,6.03
2022-10-29T06:00:37.529Z,5.53
2022-10-29T06:03:08.873Z,6.53
2022-10-29T06:05:35.620Z,6.03
2022-10-29T06:08:02.337Z,7.30
2022-10-29T06:10:29.748Z,7.10
2022-10-29T06:12:56.757Z,8.60
2022-10-29T06:15:23.459Z,6.88
2022-10-29T06:17:50.751Z,7.00
2022-10-29T06:20:20.484Z,6.90
2022-10-29T06:22:47.643Z,7.03
2022-10-29T06:25:17.366Z,5.80
2022-10-29T06:27:44.062Z,6.45
2022-10-29T06:30:11.416Z,5.72
2022-10-29T06:32:38.136Z,6.03
2022-10-29T06:35:05.149Z,6.25
2022-10-29T06:37:33.291Z,6.25
2022-10-29T06:40:00.103Z,6.75
2022-10-29T06:42:27.005Z,6.75
2022-10-29T06:44:53.704Z,6.85
2022-10-29T06:47:20.416Z,6.20
2022-10-29T06:49:47.369Z,7.63
2022-10-29T06:52:14.147Z,6.95
2022-10-29T06:54:41.125Z,7.13
2022-10-29T06:57:08.020Z,8.43
2022-10-29T06:59:34.958Z,9.55
2022-10-29T07:02:01.792Z,9.77
2022-10-29T07:04:28.526Z,10.38
2022-10-29T07:06:57.924Z,11.10
2022-10-29T07:09:24.672Z,10.35
2022-10-29T07:11:51.527Z,11.75
2022-10-29T07:14:18.217Z,12.38
2022-10-29T07:16:46.241Z,12.18
2022-10-29T07:19:13.882Z,11.68
2022-10-29T07:21:43.178Z,11.80
2022-10-29T07:24:12.928Z,10.77
2022-10-29T07:26:40.039Z,10.70
2022-10-29T07:29:06.695Z,10.50
2022-10-29T07:31:35.051Z,9.50
2022-10-29T07:34:02.002Z,9.23
2022-10-29T07:36:32.040Z,8.25
2022-10-29T07:38:58.904Z,8.50
2022-10-29T07:41:26.369Z,7.47
2022-10-29T07:43:53.219Z,6.82
2022-10-29T07:46:22.974Z,6.93
2022-10-29T07:48:49.750Z,6.88
2022-10-29T07:51:16.446Z,6.50
2022-10-29T07:53:43.266Z,6.10
2022-10-29T07:56:15.899Z,6.43
2022-10-29T07:58:42.961Z,7.35
2022-10-29T08:01:10.097Z,6.30
2022-10-29T08:03:37.108Z,5.65
2022-10-29T08:06:05.758Z,6.28
2022-10-29T08:08:34.787Z,5.57
2022-10-29T08:12:10.881Z,5.60
2022-10-29T08:14:38.947Z,5.78
2022-10-29T08:17:08.549Z,5.32
2022-10-29T08:19:35.295Z,5.22
2022-10-29T08:22:02.033Z,5.90
2022-10-29T08:24:28.754Z,5.60
2022-10-29T08:26:55.432Z,5.60
2022-10-29T08:29:22.156Z,5.15
2022-10-29T08:31:48.889Z,4.85
2022-10-29T08:34:15.711Z,5.55
2022-10-29T08:36:42.412Z,4.82
2022-10-29T08:39:09.215Z,4.65
2022-10-29T08:41:47.044Z,5.03
2022-10-29T08:44:25.781Z,4.40
2022-10-29T08:47:15.620Z,4.50
2022-10-29T08:49:48.593Z,4.45
2022-10-29T08:52:24.216Z,4.32
2022-10-29T08:55:20.980Z,4.47
2022-10-29T08:57:55.357Z,4.82
2022-10-29T09:00:34.847Z,5.15
2022-10-29T09:03:01.910Z,4.55
2022-10-29T09:05:53.473Z,4.70
2022-10-29T09:08:26.160Z,4.90
2022-10-29T09:11:01.309Z,5.30
2022-10-29T09:14:02.020Z,5.43
2022-10-29T09:16:56.539Z,4.32
2022-10-29T09:19:40.412Z,5.03
2022-10-29T09:22:16.442Z,4.80
2022-10-29T09:25:12.018Z,4.80
2022-10-29T09:28:03.751Z,4.65
2022-10-29T09:30:31.557Z,4.72
2022-10-29T09:33:07.158Z,4.55
2022-10-29T09:35:39.794Z,5.35
2022-10-29T09:38:34.426Z,4.80
2022-10-29T09:41:02.807Z,5.10
2022-10-29T09:46:18.667Z,4.95
2022-10-29T09:48:54.207Z,4.32
2022-10-29T09:51:42.351Z,4.50
2022-10-29T09:54:10.003Z,5.13
2022-10-29T09:56:42.100Z,5.00
2022-10-29T09:59:32.181Z,4.63
2022-10-29T10:01:59.867Z,5.00
2022-10-29T10:04:45.225Z,4.63
2022-10-29T10:07:17.398Z,4.90
2022-10-29T10:09:56.125Z,5.07
2022-10-29T10:12:28.653Z,4.72
2022-10-29T10:15:17.415Z,4.90
2022-10-29T10:18:07.119Z,5.53
2022-10-29T10:20:35.779Z,5.10
2022-10-29T10:23:19.235Z,4.97
2022-10-29T10:25:46.376Z,4.85
2022-10-29T10:28:23.922Z,4.93
2022-10-29T10:31:10.304Z,5.40
2022-10-29T10:33:48.151Z,5.32
2022-10-29T10:39:02.970Z,6.05
2022-10-29T10:41:34.201Z,6.00
2022-10-29T10:44:04.019Z,5.78
2022-10-29T10:46:39.714Z,6.30
2022-10-29T10:49:15.530Z,5.57
2022-10-29T10:51:49.438Z,7.88
2022-10-29T10:54:41.797Z,7.65
2022-10-29T10:57:11.466Z,7.28
2022-10-29T11:00:00.377Z,7.13
2022-10-29T11:02:50.644Z,6.75
2022-10-29T11:05:29.102Z,6.40
2022-10-29T11:08:20.590Z,5.32
2022-10-29T11:11:27.469Z,5.90
2022-10-29T11:13:58.479Z,5.43
2022-10-29T11:16:38.895Z,5.63
2022-10-29T11:19:28.510Z,5.57
2022-10-29T11:22:14.003Z,5.72
2022-10-29T11:24:43.671Z,5.50
2022-10-29T11:27:19.152Z,6.15
2022-10-29T11:30:06.687Z,5.38
2022-10-29T11:32:58.826Z,5.57
2022-10-29T11:35:41.476Z,6.03
2022-10-29T11:38:25.797Z,6.00
2022-10-29T11:41:04.898Z,6.30
2022-10-29T11:43:33.382Z,6.82
2022-10-29T11:46:28.726Z,5.80
2022-10-29T11:49:25.128Z,5.75
2022-10-29T11:52:12.372Z,5.20
2022-10-29T11:54:55.408Z,5.22
2022-10-29T11:57:36.339Z,4.68
2022-10-29T12:00:16.689Z,5.10
2022-10-29T12:03:04.150Z,5.40
2022-10-29T12:05:52.846Z,5.28
2022-10-29T12:09:01.408Z,5.43
2022-10-29T12:11:35.814Z,5.15
2022-10-29T12:14:26.734Z,5.30
2022-10-29T12:19:45.874Z,4.97
2022-10-29T12:22:23.113Z,5.22
2022-10-29T12:25:28.232Z,5.15
2022-10-29T12:28:32.486Z,4.72
2022-10-29T12:30:59.144Z,4.70
2022-10-29T12:33:37.737Z,5.00
2022-10-29T12:36:13.666Z,4.82
2022-10-29T12:38:48.697Z,4.60
2022-10-29T12:41:23.492Z,4.97
2022-10-29T12:43:53.545Z,4.68
2022-10-29T12:46:59.355Z,4.20
2022-10-29T12:49:50.197Z,4.28
2022-10-29T12:52:38.658Z,4.60
2022-10-29T12:55:07.653Z,4.32
2022-10-29T12:57:35.854Z,4.40
2022-10-29T13:00:24.497Z,4.38
2022-10-29T13:02:55.393Z,4.90
2022-10-29T13:05:25.575Z,4.30
2022-10-29T13:08:09.206Z,3.88
2022-10-29T13:10:35.908Z,4.40
2022-10-29T13:13:18.336Z,4.03
2022-10-29T13:15:57.161Z,3.97
2022-10-29T13:18:28.714Z,4.07
2022-10-29T13:20:56.054Z,4.18
2022-10-29T13:23:23.288Z,4.45
2022-10-29T13:25:51.319Z,4.68
2022-10-29T13:28:22.623Z,4.95
2022-10-29T13:31:03.705Z,4.88
2022-10-29T13:33:30.539Z,5.25
2022-10-29T13:36:03.340Z,5.63
2022-10-29T13:38:36.093Z,5.85
2022-10-29T13:41:11.967Z,5.95
2022-10-29T13:43:40.467Z,5.50
2022-10-29T13:46:13.316Z,5.45
2022-10-29T13:48:41.276Z,7.18
2022-10-29T13:53:47.394Z,7.72
2022-10-29T13:56:20.517Z,7.75
2022-10-29T13:58:48.723Z,7.10
2022-10-29T14:01:18.918Z,7.97
2022-10-29T14:04:06.933Z,7.25
2022-10-29T14:06:38.332Z,7.28
2022-10-29T14:09:27.815Z,7.00
2022-10-29T14:12:02.549Z,6.72
2022-10-29T14:14:36.124Z,6.68
2022-10-29T14:17:10.530Z,6.65
2022-10-29T14:19:37.394Z,6.32
2022-10-29T14:22:33.735Z,5.75
2022-10-29T14:25:02.112Z,5.82
2022-10-29T14:27:29.787Z,5.63
2022-10-29T14:30:29.250Z,5.78
2022-10-29T14:32:55.986Z,5.63
2022-10-29T14:35:22.775Z,5.88
2022-10-29T14:37:49.870Z,5.53
2022-10-29T14:40:23.063Z,5.80
2022-10-29T14:42:55.717Z,5.32
2022-10-29T14:45:28.533Z,5.38
2022-10-29T14:48:03.412Z,5.75
2022-10-29T14:50:31.076Z,6.05
2022-10-29T14:55:40.042Z,6.93
2022-10-29T14:58:19.345Z,6.68
2022-10-29T15:01:03.433Z,6.20
2022-10-29T15:03:32.883Z,6.40
2022-10-29T15:06:16.878Z,6.50
2022-10-29T15:08:46.842Z,6.22
2022-10-29T15:11:36.557Z,6.38
2022-10-29T15:14:05.928Z,6.57
2022-10-29T15:16:36.906Z,6.80
2022-10-29T15:19:14.480Z,6.47
2022-10-29T15:21:41.289Z,6.82
2022-10-29T15:24:17.773Z,7.72
2022-10-29T15:26:58.796Z,8.07
2022-10-29T15:29:34.058Z,6.90
2022-10-29T15:32:01.676Z,6.82
2022-10-29T15:34:37.072Z,6.75
2022-10-29T15:37:19.087Z,6.95
2022-10-29T15:40:09.284Z,6.97
2022-10-29T15:42:36.972Z,6.85
2022-10-29T15:45:30.132Z,7.88
2022-10-29T15:48:18.027Z,7.75
2022-10-29T15:53:15.825Z,7.70
2022-10-29T15:55:43.734Z,7.63
2022-10-29T15:58:10.489Z,8.30
2022-10-29T16:00:37.224Z,7.65
2022-10-29T16:03:17.707Z,7.75
2022-10-29T16:05:47.226Z,8.02
2022-10-29T16:08:27.343Z,9.18
2022-10-29T16:10:55.286Z,9.30
2022-10-29T16:13:24.047Z,10.98
2022-10-29T16:15:51.074Z,12.07
2022-10-29T16:18:18.223Z,12.85
2022-10-29T16:20:44.989Z,12.63
2022-10-29T16:23:12.266Z,13.57
2022-10-29T16:25:39.784Z,13.27
2022-10-29T16:28:07.159Z,14.40
2022-10-29T16:30:34.968Z,15.57
2022-10-29T16:33:02.405Z,16.00
2022-10-29T16:35:30.220Z,15.57
2022-10-29T16:37:57.751Z,15.70
2022-10-29T16:40:27.546Z,14.52
2022-10-29T16:42:55.055Z,14.63
2022-10-29T16:45:26.151Z,14.48
2022-10-29T16:47:53.533Z,15.70
2022-10-29T16:50:22.989Z,13.98
2022-10-29T16:52:57.823Z,13.40
2022-10-29T16:55:25.647Z,12.52
2022-10-29T16:57:52.494Z,12.55
2022-10-29T17:00:19.616Z,12.13
2022-10-29T17:02:46.579Z,12.52
2022-10-29T17:05:28.221Z,11.75
2022-10-29T17:07:55.830Z,12.93
2022-10-29T17:10:23.185Z,12.90
2022-10-29T17:12:50.432Z,14.45
2022-10-29T17:15:31.622Z,13.63
2022-10-29T17:17:58.951Z,11.70
2022-10-29T17:20:26.091Z,13.37
2022-10-29T17:22:53.372Z,13.10
2022-10-29T17:25:20.160Z,13.70
2022-10-29T17:27:46.852Z,13.05
2022-10-29T17:30:13.796Z,13.82
2022-10-29T17:32:40.774Z,14.45
2022-10-29T17:35:17.417Z,14.93
2022-10-29T17:38:01.114Z,14.45
2022-10-29T17:40:27.933Z,14.25
2022-10-29T17:42:55.389Z,15.23
2022-10-29T17:45:23.845Z,14.68
2022-10-29T17:47:57.864Z,15.18
2022-10-29T17:50:25.778Z,14.48
2022-10-29T17:52:57.868Z,14.80
2022-10-29T17:55:24.919Z,15.07
2022-10-29T17:57:51.695Z,15.75
2022-10-29T18:00:19.264Z,15.05
2022-10-29T18:02:50.096Z,16.67
2022-10-29T18:05:17.737Z,16.70
2022-10-29T18:07:44.455Z,19.23
2022-10-29T18:10:11.207Z,17.63
2022-10-29T18:12:37.887Z,18.48
2022-10-29T18:15:05.376Z,17.88
2022-10-29T18:17:32.519Z,14.88
2022-10-29T18:19:59.211Z,15.75
2022-10-29T18:22:25.963Z,31.95
2022-10-29T18:24:52.656Z,32.85
2022-10-29T18:27:20.236Z,30.13
2022-10-29T18:29:47.068Z,26.83
2022-10-29T18:32:13.866Z,22.15
2022-10-29T18:34:40.670Z,20.90
2022-10-29T18:37:07.667Z,19.20
2022-10-29T18:39:34.449Z,18.83
2022-10-29T18:42:01.432Z,17.63
2022-10-29T18:44:28.420Z,17.60
2022-10-29T18:46:55.364Z,16.52
2022-10-29T18:49:22.124Z,17.10
2022-10-29T18:51:48.849Z,18.35
2022-10-29T18:54:15.737Z,17.17
2022-10-29T18:56:42.851Z,18.40
2022-10-29T18:59:11.472Z,16.17
2022-10-29T19:01:38.581Z,16.40
2022-10-29T19:04:08.496Z,15.60
2022-10-29T19:06:36.883Z,15.90
2022-10-29T19:09:07.137Z,16.90
2022-10-29T19:11:34.395Z,16.40
2022-10-29T19:14:10.012Z,16.05
2022-10-29T19:16:41.539Z,16.77
2022-10-29T19:19:11.689Z,18.40
2022-10-29T19:21:40.006Z,20.60
2022-10-29T19:26:36.792Z,15.45
2022-10-29T19:29:05.593Z,18.48
2022-10-29T19:31:34.618Z,16.42
2022-10-29T19:34:05.961Z,17.23
2022-10-29T19:36:34.466Z,15.75
2022-10-29T19:39:01.585Z,15.85
2022-10-29T19:41:29.300Z,15.10
2022-10-29T19:43:59.975Z,17.75
2022-10-29T19:46:27.179Z,17.25
2022-10-29T19:48:58.359Z,17.13
2022-10-29T19:51:25.307Z,17.02
2022-10-29T19:53:52.030Z,15.57
2022-10-29T19:56:20.170Z,15.05
2022-10-29T19:58:47.248Z,13.85
2022-10-29T20:01:18.943Z,14.80
2022-10-29T20:03:46.875Z,13.98
2022-10-29T20:06:14.854Z,14.45
2022-10-29T20:08:41.664Z,13.23
2022-10-29T20:11:08.684Z,13.48
2022-10-29T20:13:39.767Z,15.30
2022-10-29T20:16:16.732Z,14.45
2022-10-29T20:18:43.493Z,11.93
2022-10-29T20:21:10.248Z,13.68
2022-10-29T20:23:37.047Z,14.35
2022-10-29T20:26:04.430Z,13.82
2022-10-29T20:28:31.210Z,13.73
2022-10-29T20:31:18.833Z,14.20
2022-10-29T20:34:01.632Z,15.20
2022-10-29T20:36:31.269Z,15.18
2022-10-29T20:39:01.460Z,13.60
2022-10-29T20:41:31.305Z,15.93
2022-10-29T20:44:01.080Z,14.52
2022-10-29T20:46:28.585Z,13.93
2022-10-29T20:48:55.608Z,13.75
2022-10-29T20:51:25.162Z,14.45
2022-10-29T20:53:52.814Z,14.00
2022-10-29T20:56:21.322Z,11.43
2022-10-29T20:58:48.200Z,11.18
2022-10-29T21:01:17.618Z,10.57
2022-10-29T21:03:45.266Z,10.65
2022-10-29T21:06:17.108Z,10.52
2022-10-29T21:08:48.577Z,11.10
2022-10-29T21:11:20.420Z,11.07
2022-10-29T21:13:47.203Z,18.23
2022-10-29T21:16:31.425Z,21.23
2022-10-29T21:19:00.943Z,17.58
2022-10-29T21:21:29.093Z,14.30
2022-10-29T21:26:25.010Z,13.38
2022-10-29T21:28:55.736Z,12.57
2022-10-29T21:31:23.431Z,13.77
2022-10-29T21:33:54.776Z,12.70
2022-10-29T21:36:22.646Z,12.40
2022-10-29T21:38:52.260Z,12.60
2022-10-29T21:41:18.959Z,11.98
2022-10-29T21:43:46.121Z,11.27
2022-10-29T21:46:12.885Z,13.90
2022-10-29T21:48:39.646Z,12.32
2022-10-29T21:51:09.814Z,13.15
2022-10-29T21:53:36.757Z,15.27
2022-10-29T21:56:06.272Z,15.30
2022-10-29T21:58:33.510Z,15.63
2022-10-29T22:01:07.008Z,15.82
2022-10-29T22:03:38.472Z,15.32
2022-10-29T22:06:13.946Z,13.23
2022-10-29T22:08:41.908Z,11.18
2022-10-29T22:11:09.279Z,10.48
2022-10-29T22:13:36.452Z,10.15
2022-10-29T22:16:05.171Z,9.75
2022-10-29T22:18:32.492Z,12.00
2022-10-29T22:21:20.312Z,11.63
2022-10-29T22:23:49.297Z,11.48
2022-10-29T22:26:18.510Z,12.05
2022-10-29T22:28:47.134Z,12.32
2022-10-29T22:31:15.310Z,12.57
2022-10-29T22:33:43.183Z,12.10
2022-10-29T22:36:25.071Z,12.25
2022-10-29T22:38:56.235Z,12.27
2022-10-29T22:41:23.936Z,12.70
2022-10-29T22:43:50.611Z,13.55
2022-10-29T22:46:19.218Z,13.38
2022-10-29T22:48:46.525Z,13.02
2022-10-29T22:51:16.155Z,13.33
2022-10-29T22:53:43.585Z,14.02
2022-10-29T22:56:15.498Z,13.43
2022-10-29T22:58:42.412Z,14.95
2022-10-29T23:01:18.295Z,13.85
2022-10-29T23:03:45.633Z,13.23
2022-10-29T23:06:14.900Z,15.00
2022-10-29T23:08:45.316Z,16.98
2022-10-29T23:11:21.393Z,17.05
2022-10-29T23:13:50.305Z,17.83
2022-10-29T23:16:17.041Z,18.75
2022-10-29T23:18:48.082Z,17.48
2022-10-29T23:21:14.840Z,18.02
2022-10-29T23:23:41.883Z,17.55
2022-10-29T23:26:11.216Z,16.83
2022-10-29T23:28:39.789Z,15.00
2022-10-29T23:31:21.068Z,14.98
2022-10-29T23:33:53.840Z,12.23
2022-10-29T23:36:22.569Z,13.27
2022-10-29T23:38:58.048Z,13.05
2022-10-29T23:41:26.155Z,13.63
2022-10-29T23:43:53.103Z,13.88
2022-10-29T23:46:20.340Z,15.10
2022-10-29T23:48:47.258Z,15.02
2022-10-29T23:51:14.072Z,14.55
2022-10-29T23:53:41.185Z,15.10
2022-10-29T23:56:08.095Z,13.68
2022-10-29T23:58:34.885Z,12.68
